sensor_id;sensor_type;location;lat;lon;timestamp;pressure;altitude;pressure_sealevel;temperature
24714;BMP280;12820;51.580;5.010;2022-07-06T00:00:06;102517.00;;;16.96
24714;BMP280;12820;51.580;5.010;2022-07-06T00:05:08;102523.91;;;16.85
24714;BMP280;12820;51.580;5.010;2022-07-06T00:10:10;102524.03;;;16.75
24714;BMP280;12820;51.580;5.010;2022-07-06T00:15:12;102529.25;;;16.65
24714;BMP280;12820;51.580;5.010;2022-07-06T00:20:14;102525.16;;;16.55
24714;BMP280;12820;51.580;5.010;2022-07-06T00:25:16;102519.34;;;16.44
24714;BMP280;12820;51.580;5.010;2022-07-06T00:30:19;102527.06;;;16.36
24714;BMP280;12820;51.580;5.010;2022-07-06T00:35:21;102529.72;;;16.27
24714;BMP280;12820;51.580;5.010;2022-07-06T00:40:24;102523.88;;;16.17
24714;BMP280;12820;51.580;5.010;2022-07-06T00:45:26;102523.97;;;16.09
24714;BMP280;12820;51.580;5.010;2022-07-06T00:50:29;102530.81;;;16.00
24714;BMP280;12820;51.580;5.010;2022-07-06T00:55:34;102524.09;;;15.93
24714;BMP280;12820;51.580;5.010;2022-07-06T01:00:37;102524.19;;;15.84
24714;BMP280;12820;51.580;5.010;2022-07-06T01:05:40;102525.09;;;15.77
24714;BMP280;12820;51.580;5.010;2022-07-06T01:10:42;102530.22;;;15.71
24714;BMP280;12820;51.580;5.010;2022-07-06T01:15:45;102523.53;;;15.63
24714;BMP280;12820;51.580;5.010;2022-07-06T01:20:47;102528.69;;;15.53
24714;BMP280;12820;51.580;5.010;2022-07-06T01:25:49;102527.91;;;15.45
24714;BMP280;12820;51.580;5.010;2022-07-06T01:30:52;102527.94;;;15.38
24714;BMP280;12820;51.580;5.010;2022-07-06T01:35:54;102523.78;;;15.31
24714;BMP280;12820;51.580;5.010;2022-07-06T01:40:57;102523.81;;;15.24
24714;BMP280;12820;51.580;5.010;2022-07-06T01:45:59;102532.28;;;15.20
24714;BMP280;12820;51.580;5.010;2022-07-06T01:51:01;102526.41;;;15.16
24714;BMP280;12820;51.580;5.010;2022-07-06T01:56:04;102531.47;;;15.13
24714;BMP280;12820;51.580;5.010;2022-07-06T02:01:10;102512.94;;;15.10
24714;BMP280;12820;51.580;5.010;2022-07-06T02:06:14;102517.19;;;15.07
24714;BMP280;12820;51.580;5.010;2022-07-06T02:11:20;102532.38;;;15.04
24714;BMP280;12820;51.580;5.010;2022-07-06T02:16:22;102546.75;;;15.00
24714;BMP280;12820;51.580;5.010;2022-07-06T02:21:24;102537.50;;;14.96
24714;BMP280;12820;51.580;5.010;2022-07-06T02:26:27;102540.91;;;14.93
24714;BMP280;12820;51.580;5.010;2022-07-06T02:31:29;102534.16;;;14.89
24714;BMP280;12820;51.580;5.010;2022-07-06T02:36:31;102524.03;;;14.83
24714;BMP280;12820;51.580;5.010;2022-07-06T02:41:34;102520.69;;;14.79
24714;BMP280;12820;51.580;5.010;2022-07-06T02:46:36;102529.13;;;14.75
24714;BMP280;12820;51.580;5.010;2022-07-06T02:51:38;102536.75;;;14.71
24714;BMP280;12820;51.580;5.010;2022-07-06T02:56:41;102545.19;;;14.66
24714;BMP280;12820;51.580;5.010;2022-07-06T03:01:44;102544.38;;;14.62
24714;BMP280;12820;51.580;5.010;2022-07-06T03:06:46;102535.97;;;14.59
24714;BMP280;12820;51.580;5.010;2022-07-06T03:11:49;102537.66;;;14.56
24714;BMP280;12820;51.580;5.010;2022-07-06T03:16:51;102543.56;;;14.53
24714;BMP280;12820;51.580;5.010;2022-07-06T03:21:54;102549.50;;;14.51
24714;BMP280;12820;51.580;5.010;2022-07-06T03:26:56;102550.34;;;14.48
24714;BMP280;12820;51.580;5.010;2022-07-06T03:31:58;102552.84;;;14.47
24714;BMP280;12820;51.580;5.010;2022-07-06T03:37:01;102541.91;;;14.45
24714;BMP280;12820;51.580;5.010;2022-07-06T03:42:03;102544.44;;;14.42
24714;BMP280;12820;51.580;5.010;2022-07-06T03:47:06;102546.97;;;14.42
24714;BMP280;12820;51.580;5.010;2022-07-06T03:52:09;102549.50;;;14.42
24714;BMP280;12820;51.580;5.010;2022-07-06T03:57:18;102547.84;;;14.41
24714;BMP280;12820;51.580;5.010;2022-07-06T04:02:20;102549.50;;;14.42
24714;BMP280;12820;51.580;5.010;2022-07-06T04:07:25;102539.38;;;14.46
24714;BMP280;12820;51.580;5.010;2022-07-06T04:12:28;102531.78;;;14.49
24714;BMP280;12820;51.580;5.010;2022-07-06T04:17:30;102524.16;;;14.54
24714;BMP280;12820;51.580;5.010;2022-07-06T04:22:52;102527.53;;;14.58
24714;BMP280;12820;51.580;5.010;2022-07-06T04:27:56;102526.66;;;14.62
24714;BMP280;12820;51.580;5.010;2022-07-06T04:32:59;102528.31;;;14.66
24714;BMP280;12820;51.580;5.010;2022-07-06T04:38:03;102529.16;;;14.73
24714;BMP280;12820;51.580;5.010;2022-07-06T04:43:07;102527.41;;;14.80
24714;BMP280;12820;51.580;5.010;2022-07-06T04:48:09;102529.94;;;14.89
24714;BMP280;12820;51.580;5.010;2022-07-06T04:53:12;102523.97;;;15.00
24714;BMP280;12820;51.580;5.010;2022-07-06T04:58:15;102532.34;;;15.11
24714;BMP280;12820;51.580;5.010;2022-07-06T05:03:18;102537.31;;;15.23
24714;BMP280;12820;51.580;5.010;2022-07-06T05:08:21;102541.50;;;15.34
24714;BMP280;12820;51.580;5.010;2022-07-06T05:13:24;102541.41;;;15.46
24714;BMP280;12820;51.580;5.010;2022-07-06T05:18:26;102540.47;;;15.57
24714;BMP280;12820;51.580;5.010;2022-07-06T05:23:30;102542.06;;;15.69
24714;BMP280;12820;51.580;5.010;2022-07-06T05:28:32;102543.69;;;15.79
24714;BMP280;12820;51.580;5.010;2022-07-06T05:33:40;102552.00;;;15.90
24714;BMP280;12820;51.580;5.010;2022-07-06T05:38:43;102555.34;;;16.00
24714;BMP280;12820;51.580;5.010;2022-07-06T05:43:46;102551.03;;;16.10
24714;BMP280;12820;51.580;5.010;2022-07-06T05:48:48;102549.22;;;16.20
24714;BMP280;12820;51.580;5.010;2022-07-06T05:54:09;102554.19;;;16.31
24714;BMP280;12820;51.580;5.010;2022-07-06T05:59:11;102550.72;;;16.39
24714;BMP280;12820;51.580;5.010;2022-07-06T06:04:14;102567.47;;;16.52
24714;BMP280;12820;51.580;5.010;2022-07-06T06:09:17;102561.44;;;16.64
24714;BMP280;12820;51.580;5.010;2022-07-06T06:14:19;102552.81;;;16.75
24714;BMP280;12820;51.580;5.010;2022-07-06T06:19:22;102554.34;;;16.88
24714;BMP280;12820;51.580;5.010;2022-07-06T06:24:24;102550.00;;;16.99
24714;BMP280;12820;51.580;5.010;2022-07-06T06:29:27;102557.47;;;17.10
24714;BMP280;12820;51.580;5.010;2022-07-06T06:34:29;102556.47;;;17.20
24714;BMP280;12820;51.580;5.010;2022-07-06T06:39:31;102561.41;;;17.30
24714;BMP280;12820;51.580;5.010;2022-07-06T06:44:33;102559.56;;;17.40
24714;BMP280;12820;51.580;5.010;2022-07-06T06:49:35;102567.88;;;17.50
24714;BMP280;12820;51.580;5.010;2022-07-06T06:54:38;102566.00;;;17.61
24714;BMP280;12820;51.580;5.010;2022-07-06T06:59:40;102571.78;;;17.72
24714;BMP280;12820;51.580;5.010;2022-07-06T07:04:42;102570.72;;;17.86
24714;BMP280;12820;51.580;5.010;2022-07-06T07:09:44;102570.53;;;17.96
24714;BMP280;12820;51.580;5.010;2022-07-06T07:14:46;102569.47;;;18.09
24714;BMP280;12820;51.580;5.010;2022-07-06T07:19:49;102575.91;;;18.27
24714;BMP280;12820;51.580;5.010;2022-07-06T07:24:51;102573.75;;;18.51
24714;BMP280;12820;51.580;5.010;2022-07-06T07:29:53;102578.44;;;18.73
24714;BMP280;12820;51.580;5.010;2022-07-06T07:34:55;102581.38;;;18.95
24714;BMP280;12820;51.580;5.010;2022-07-06T07:39:58;102568.09;;;19.19
24714;BMP280;12820;51.580;5.010;2022-07-06T07:45:00;102572.03;;;19.31
24714;BMP280;12820;51.580;5.010;2022-07-06T07:50:03;102565.75;;;19.45
24714;BMP280;12820;51.580;5.010;2022-07-06T07:55:05;102566.38;;;19.56
24714;BMP280;12820;51.580;5.010;2022-07-06T08:00:28;102555.00;;;19.69
24714;BMP280;12820;51.580;5.010;2022-07-06T08:05:30;102558.97;;;19.81
24714;BMP280;12820;51.580;5.010;2022-07-06T08:10:33;102558.53;;;19.97
24714;BMP280;12820;51.580;5.010;2022-07-06T08:15:55;102558.91;;;20.15
24714;BMP280;12820;51.580;5.010;2022-07-06T08:20:57;102557.38;;;20.41
24714;BMP280;12820;51.580;5.010;2022-07-06T08:26:19;102563.63;;;20.61
24714;BMP280;12820;51.580;5.010;2022-07-06T08:31:22;102555.56;;;20.74
24714;BMP280;12820;51.580;5.010;2022-07-06T08:36:44;102533.69;;;20.93
24714;BMP280;12820;51.580;5.010;2022-07-06T08:41:47;102535.41;;;21.20
24714;BMP280;12820;51.580;5.010;2022-07-06T08:46:51;102534.00;;;21.37
24714;BMP280;12820;51.580;5.010;2022-07-06T08:51:54;102529.88;;;21.59
24714;BMP280;12820;51.580;5.010;2022-07-06T08:56:56;102529.06;;;21.82
24714;BMP280;12820;51.580;5.010;2022-07-06T09:01:59;102516.06;;;22.13
24714;BMP280;12820;51.580;5.010;2022-07-06T09:07:03;102513.75;;;22.52
24714;BMP280;12820;51.580;5.010;2022-07-06T09:12:11;102513.22;;;22.89
24714;BMP280;12820;51.580;5.010;2022-07-06T09:17:13;102517.22;;;23.17
24714;BMP280;12820;51.580;5.010;2022-07-06T09:27:27;102519.75;;;23.80
24714;BMP280;12820;51.580;5.010;2022-07-06T09:32:30;102521.19;;;24.06
24714;BMP280;12820;51.580;5.010;2022-07-06T09:37:32;102523.09;;;24.21
24714;BMP280;12820;51.580;5.010;2022-07-06T09:42:34;102521.16;;;24.25
24714;BMP280;12820;51.580;5.010;2022-07-06T09:47:36;102521.28;;;24.42
24714;BMP280;12820;51.580;5.010;2022-07-06T09:52:39;102525.63;;;24.59
24714;BMP280;12820;51.580;5.010;2022-07-06T09:57:52;102529.72;;;24.81
24714;BMP280;12820;51.580;5.010;2022-07-06T10:02:55;102528.72;;;24.85
24714;BMP280;12820;51.580;5.010;2022-07-06T10:07:59;102525.91;;;24.72
24714;BMP280;12820;51.580;5.010;2022-07-06T10:13:03;102532.25;;;24.65
24714;BMP280;12820;51.580;5.010;2022-07-06T10:18:09;102535.88;;;24.79
24714;BMP280;12820;51.580;5.010;2022-07-06T10:23:12;102536.00;;;24.94
24714;BMP280;12820;51.580;5.010;2022-07-06T10:28:14;102532.94;;;25.04
24714;BMP280;12820;51.580;5.010;2022-07-06T10:33:17;102533.63;;;25.08
24714;BMP280;12820;51.580;5.010;2022-07-06T10:38:30;102534.03;;;25.17
24714;BMP280;12820;51.580;5.010;2022-07-06T10:48:40;102521.50;;;25.10
24714;BMP280;12820;51.580;5.010;2022-07-06T10:53:43;102509.97;;;25.18
24714;BMP280;12820;51.580;5.010;2022-07-06T10:58:50;102505.63;;;25.36
24714;BMP280;12820;51.580;5.010;2022-07-06T11:14:07;102510.53;;;26.08
24714;BMP280;12820;51.580;5.010;2022-07-06T11:19:11;102502.09;;;26.37
24714;BMP280;12820;51.580;5.010;2022-07-06T11:24:16;102503.31;;;26.61
24714;BMP280;12820;51.580;5.010;2022-07-06T11:29:20;102493.19;;;26.73
24714;BMP280;12820;51.580;5.010;2022-07-06T11:34:35;102490.03;;;26.84
24714;BMP280;12820;51.580;5.010;2022-07-06T11:39:42;102477.69;;;27.04
24714;BMP280;12820;51.580;5.010;2022-07-06T11:44:45;102468.25;;;27.33
24714;BMP280;12820;51.580;5.010;2022-07-06T11:49:49;102457.84;;;27.63
24714;BMP280;12820;51.580;5.010;2022-07-06T11:54:57;102457.88;;;27.77
24714;BMP280;12820;51.580;5.010;2022-07-06T11:59:59;102445.06;;;28.02
24714;BMP280;12820;51.580;5.010;2022-07-06T12:05:01;102436.84;;;28.23
24714;BMP280;12820;51.580;5.010;2022-07-06T12:10:04;102429.16;;;28.49
24714;BMP280;12820;51.580;5.010;2022-07-06T12:15:07;102432.06;;;28.70
24714;BMP280;12820;51.580;5.010;2022-07-06T12:20:12;102426.00;;;28.97
24714;BMP280;12820;51.580;5.010;2022-07-06T12:25:36;102422.72;;;29.07
24714;BMP280;12820;51.580;5.010;2022-07-06T12:30:45;102426.06;;;29.22
24714;BMP280;12820;51.580;5.010;2022-07-06T12:35:47;102408.72;;;29.60
24714;BMP280;12820;51.580;5.010;2022-07-06T12:40:50;102414.94;;;30.18
24714;BMP280;12820;51.580;5.010;2022-07-06T12:45:52;102418.56;;;30.40
24714;BMP280;12820;51.580;5.010;2022-07-06T12:50:56;102409.31;;;30.94
24714;BMP280;12820;51.580;5.010;2022-07-06T12:56:11;102396.06;;;32.61
24714;BMP280;12820;51.580;5.010;2022-07-06T13:01:14;102405.31;;;32.32
24714;BMP280;12820;51.580;5.010;2022-07-06T13:06:27;102409.94;;;31.86
24714;BMP280;12820;51.580;5.010;2022-07-06T13:11:29;102412.25;;;31.46
24714;BMP280;12820;51.580;5.010;2022-07-06T13:16:31;102402.47;;;31.16
24714;BMP280;12820;51.580;5.010;2022-07-06T13:21:36;102402.94;;;31.21
24714;BMP280;12820;51.580;5.010;2022-07-06T13:26:38;102395.88;;;31.34
24714;BMP280;12820;51.580;5.010;2022-07-06T13:31:41;102388.31;;;31.31
24714;BMP280;12820;51.580;5.010;2022-07-06T13:36:43;102379.63;;;31.64
24714;BMP280;12820;51.580;5.010;2022-07-06T13:41:45;102375.44;;;32.06
24714;BMP280;12820;51.580;5.010;2022-07-06T13:46:47;102365.16;;;31.94
24714;BMP280;12820;51.580;5.010;2022-07-06T13:51:49;102370.88;;;31.43
24714;BMP280;12820;51.580;5.010;2022-07-06T13:56:51;102350.38;;;31.28
24714;BMP280;12820;51.580;5.010;2022-07-06T14:01:53;102356.00;;;31.01
24714;BMP280;12820;51.580;5.010;2022-07-06T14:06:56;102347.03;;;30.82
24714;BMP280;12820;51.580;5.010;2022-07-06T14:11:58;102339.09;;;32.67
24714;BMP280;12820;51.580;5.010;2022-07-06T14:17:03;102336.34;;;32.38
24714;BMP280;12820;51.580;5.010;2022-07-06T14:22:05;102336.59;;;32.35
24714;BMP280;12820;51.580;5.010;2022-07-06T14:27:07;102333.84;;;32.36
24714;BMP280;12820;51.580;5.010;2022-07-06T14:32:10;102337.31;;;31.83
24714;BMP280;12820;51.580;5.010;2022-07-06T14:37:12;102325.78;;;31.22
24714;BMP280;12820;51.580;5.010;2022-07-06T14:42:21;102320.97;;;30.61
24714;BMP280;12820;51.580;5.010;2022-07-06T14:47:23;102324.31;;;30.28
24714;BMP280;12820;51.580;5.010;2022-07-06T14:52:25;102315.94;;;30.12
24714;BMP280;12820;51.580;5.010;2022-07-06T14:57:27;102310.56;;;30.15
24714;BMP280;12820;51.580;5.010;2022-07-06T15:02:29;102317.66;;;29.89
24714;BMP280;12820;51.580;5.010;2022-07-06T15:07:32;102309.78;;;29.78
24714;BMP280;12820;51.580;5.010;2022-07-06T15:12:39;102304.75;;;29.40
24714;BMP280;12820;51.580;5.010;2022-07-06T15:17:41;102312.25;;;28.94
24714;BMP280;12820;51.580;5.010;2022-07-06T15:22:43;102312.41;;;28.53
24714;BMP280;12820;51.580;5.010;2022-07-06T15:27:45;102314.16;;;28.14
24714;BMP280;12820;51.580;5.010;2022-07-06T15:32:48;102318.09;;;27.80
24714;BMP280;12820;51.580;5.010;2022-07-06T15:37:50;102305.47;;;27.62
24714;BMP280;12820;51.580;5.010;2022-07-06T15:42:56;102298.09;;;27.69
24714;BMP280;12820;51.580;5.010;2022-07-06T15:47:58;102296.31;;;27.97
24714;BMP280;12820;51.580;5.010;2022-07-06T15:53:01;102294.25;;;28.02
24714;BMP280;12820;51.580;5.010;2022-07-06T15:58:03;102276.56;;;27.82
24714;BMP280;12820;51.580;5.010;2022-07-06T16:03:05;102279.16;;;27.55
24714;BMP280;12820;51.580;5.010;2022-07-06T16:08:07;102283.38;;;27.56
24714;BMP280;12820;51.580;5.010;2022-07-06T16:13:24;102278.88;;;27.60
24714;BMP280;12820;51.580;5.010;2022-07-06T16:18:26;102266.88;;;27.59
24714;BMP280;12820;51.580;5.010;2022-07-06T16:23:29;102255.16;;;27.53
24714;BMP280;12820;51.580;5.010;2022-07-06T16:28:33;102240.03;;;27.61
24714;BMP280;12820;51.580;5.010;2022-07-06T16:33:35;102234.88;;;27.75
24714;BMP280;12820;51.580;5.010;2022-07-06T16:38:38;102237.31;;;27.90
24714;BMP280;12820;51.580;5.010;2022-07-06T16:43:41;102230.75;;;27.84
24714;BMP280;12820;51.580;5.010;2022-07-06T16:48:43;102235.22;;;27.82
24714;BMP280;12820;51.580;5.010;2022-07-06T16:53:45;102237.47;;;27.75
24714;BMP280;12820;51.580;5.010;2022-07-06T16:58:47;102230.91;;;27.56
24714;BMP280;12820;51.580;5.010;2022-07-06T17:03:49;102242.69;;;27.32
24714;BMP280;12820;51.580;5.010;2022-07-06T17:08:52;102235.22;;;27.14
24714;BMP280;12820;51.580;5.010;2022-07-06T17:13:54;102225.59;;;26.89
24714;BMP280;12820;51.580;5.010;2022-07-06T17:18:56;102222.03;;;26.63
24714;BMP280;12820;51.580;5.010;2022-07-06T17:23:58;102218.06;;;26.42
24714;BMP280;12820;51.580;5.010;2022-07-06T17:29:00;102221.59;;;26.26
24714;BMP280;12820;51.580;5.010;2022-07-06T17:34:03;102212.16;;;26.12
24714;BMP280;12820;51.580;5.010;2022-07-06T17:39:05;102224.13;;;25.98
24714;BMP280;12820;51.580;5.010;2022-07-06T17:44:07;102218.91;;;25.84
24714;BMP280;12820;51.580;5.010;2022-07-06T17:49:09;102210.06;;;25.73
24714;BMP280;12820;51.580;5.010;2022-07-06T17:54:17;102212.28;;;25.64
24714;BMP280;12820;51.580;5.010;2022-07-06T17:59:19;102199.16;;;25.53
24714;BMP280;12820;51.580;5.010;2022-07-06T18:04:21;102192.69;;;25.46
24714;BMP280;12820;51.580;5.010;2022-07-06T18:09:23;102189.34;;;25.44
24714;BMP280;12820;51.580;5.010;2022-07-06T18:14:25;102190.81;;;25.33
24714;BMP280;12820;51.580;5.010;2022-07-06T18:19:27;102178.63;;;25.20
24714;BMP280;12820;51.580;5.010;2022-07-06T18:24:29;102193.84;;;25.09
24714;BMP280;12820;51.580;5.010;2022-07-06T18:29:33;102191.88;;;24.97
24714;BMP280;12820;51.580;5.010;2022-07-06T18:34:35;102187.50;;;24.83
24714;BMP280;12820;51.580;5.010;2022-07-06T18:39:37;102184.03;;;24.67
24714;BMP280;12820;51.580;5.010;2022-07-06T18:44:39;102178.72;;;24.54
24714;BMP280;12820;51.580;5.010;2022-07-06T18:49:41;102182.75;;;24.42
24714;BMP280;12820;51.580;5.010;2022-07-06T18:54:43;102181.31;;;24.37
24714;BMP280;12820;51.580;5.010;2022-07-06T18:59:45;102187.03;;;24.25
24714;BMP280;12820;51.580;5.010;2022-07-06T19:04:47;102190.34;;;24.11
24714;BMP280;12820;51.580;5.010;2022-07-06T19:09:49;102174.13;;;23.92
24714;BMP280;12820;51.580;5.010;2022-07-06T19:14:51;102169.63;;;23.79
24714;BMP280;12820;51.580;5.010;2022-07-06T19:19:55;102183.09;;;23.66
24714;BMP280;12820;51.580;5.010;2022-07-06T19:24:59;102175.06;;;23.55
24714;BMP280;12820;51.580;5.010;2022-07-06T19:30:01;102176.44;;;23.44
24714;BMP280;12820;51.580;5.010;2022-07-06T19:35:04;102187.16;;;23.34
24714;BMP280;12820;51.580;5.010;2022-07-06T19:40:07;102184.19;;;23.25
24714;BMP280;12820;51.580;5.010;2022-07-06T19:45:09;102187.97;;;23.16
24714;BMP280;12820;51.580;5.010;2022-07-06T19:50:11;102190.09;;;23.07
24714;BMP280;12820;51.580;5.010;2022-07-06T19:55:13;102190.66;;;22.96
24714;BMP280;12820;51.580;5.010;2022-07-06T20:00:18;102184.25;;;22.86
24714;BMP280;12820;51.580;5.010;2022-07-06T20:05:20;102174.34;;;22.77
24714;BMP280;12820;51.580;5.010;2022-07-06T20:10:22;102175.56;;;22.69
24714;BMP280;12820;51.580;5.010;2022-07-06T20:15:24;102169.06;;;22.62
24714;BMP280;12820;51.580;5.010;2022-07-06T20:20:26;102162.50;;;22.55
24714;BMP280;12820;51.580;5.010;2022-07-06T20:25:28;102163.63;;;22.48
24714;BMP280;12820;51.580;5.010;2022-07-06T20:30:31;102175.03;;;22.42
24714;BMP280;12820;51.580;5.010;2022-07-06T20:35:33;102171.97;;;22.34
24714;BMP280;12820;51.580;5.010;2022-07-06T20:40:35;102172.19;;;22.28
24714;BMP280;12820;51.580;5.010;2022-07-06T20:45:37;102166.63;;;22.19
24714;BMP280;12820;51.580;5.010;2022-07-06T20:50:39;102168.63;;;22.11
24714;BMP280;12820;51.580;5.010;2022-07-06T20:55:41;102163.78;;;22.05
24714;BMP280;12820;51.580;5.010;2022-07-06T21:00:44;102166.63;;;21.98
24714;BMP280;12820;51.580;5.010;2022-07-06T21:05:46;102160.84;;;21.93
24714;BMP280;12820;51.580;5.010;2022-07-06T21:10:48;102162.88;;;21.85
24714;BMP280;12820;51.580;5.010;2022-07-06T21:15:50;102158.09;;;21.76
24714;BMP280;12820;51.580;5.010;2022-07-06T21:20:52;102149.84;;;21.69
24714;BMP280;12820;51.580;5.010;2022-07-06T21:25:54;102152.72;;;21.61
24714;BMP280;12820;51.580;5.010;2022-07-06T21:30:57;102146.94;;;21.56
24714;BMP280;12820;51.580;5.010;2022-07-06T21:35:59;102137.06;;;21.48
24714;BMP280;12820;51.580;5.010;2022-07-06T21:41:01;102133.00;;;21.42
24714;BMP280;12820;51.580;5.010;2022-07-06T21:46:03;102119.66;;;21.35
24714;BMP280;12820;51.580;5.010;2022-07-06T21:51:06;102122.47;;;21.29
24714;BMP280;12820;51.580;5.010;2022-07-06T21:56:09;102119.28;;;21.22
24714;BMP280;12820;51.580;5.010;2022-07-06T22:01:11;102122.19;;;21.14
24714;BMP280;12820;51.580;5.010;2022-07-06T22:06:14;102124.91;;;21.08
24714;BMP280;12820;51.580;5.010;2022-07-06T22:11:17;102114.91;;;21.02
24714;BMP280;12820;51.580;5.010;2022-07-06T22:16:19;102118.50;;;20.97
24714;BMP280;12820;51.580;5.010;2022-07-06T22:21:22;102108.47;;;20.92
24714;BMP280;12820;51.580;5.010;2022-07-06T22:26:25;102103.47;;;20.89
24714;BMP280;12820;51.580;5.010;2022-07-06T22:31:27;102095.91;;;20.86
24714;BMP280;12820;51.580;5.010;2022-07-06T22:36:29;102094.28;;;20.84
24714;BMP280;12820;51.580;5.010;2022-07-06T22:41:34;102094.41;;;20.81
24714;BMP280;12820;51.580;5.010;2022-07-06T22:46:37;102079.91;;;20.82
24714;BMP280;12820;51.580;5.010;2022-07-06T22:51:39;102090.06;;;20.83
24714;BMP280;12820;51.580;5.010;2022-07-06T22:56:42;102081.56;;;20.82
24714;BMP280;12820;51.580;5.010;2022-07-06T23:01:44;102074.81;;;20.82
24714;BMP280;12820;51.580;5.010;2022-07-06T23:06:47;102069.69;;;20.82
24714;BMP280;12820;51.580;5.010;2022-07-06T23:11:50;102073.09;;;20.82
24714;BMP280;12820;51.580;5.010;2022-07-06T23:16:52;102059.50;;;20.80
24714;BMP280;12820;51.580;5.010;2022-07-06T23:21:54;102058.63;;;20.81
24714;BMP280;12820;51.580;5.010;2022-07-06T23:26:56;102060.34;;;20.81
24714;BMP280;12820;51.580;5.010;2022-07-06T23:31:58;102058.72;;;20.78
24714;BMP280;12820;51.580;5.010;2022-07-06T23:37:01;102056.25;;;20.77
24714;BMP280;12820;51.580;5.010;2022-07-06T23:42:04;102038.28;;;20.78
24714;BMP280;12820;51.580;5.010;2022-07-06T23:47:06;102028.06;;;20.78
24714;BMP280;12820;51.580;5.010;2022-07-06T23:52:09;102022.94;;;20.78
24714;BMP280;12820;51.580;5.010;2022-07-06T23:57:11;102009.50;;;20.73
